Time;durP1;ratioP1;P1;durP2;ratioP2;P2;SDS_P1;SDS_P2;PMS_P1;PMS_P2;Temp;Humidity;BMP_temperature;BMP_pressure;BME280_temperature;BME280_humidity;BME280_pressure;Samples;Min_cycle;Max_cycle;Signal;HPM_P1;HPM_P2
2021/09/03 00:02:14;;;;;;;9.80;6.57;;;12.80;99.90;;;;;;5052192;28;20216;-65
2021/09/03 00:04:42;;;;;;;7.80;6.50;;;12.80;99.90;;;;;;5052182;28;20233;-64
2021/09/03 00:07:10;;;;;;;9.17;6.97;;;12.90;99.90;;;;;;5052333;28;20206;-64
2021/09/03 00:09:37;;;;;;;9.30;6.43;;;12.90;99.90;;;;;;5052373;28;20239;-63
2021/09/03 00:12:05;;;;;;;6.93;6.23;;;12.90;99.90;;;;;;5052077;28;20228;-63
2021/09/03 00:14:32;;;;;;;8.87;6.13;;;12.80;99.90;;;;;;5051864;28;20279;-63
2021/09/03 00:16:59;;;;;;;9.40;6.37;;;12.80;99.90;;;;;;5051950;28;20623;-64
2021/09/03 00:19:27;;;;;;;8.63;5.83;;;12.70;99.90;;;;;;5051894;28;20260;-64
2021/09/03 00:21:55;;;;;;;8.53;6.57;;;12.70;99.90;;;;;;5051969;28;20202;-63
2021/09/03 00:24:22;;;;;;;7.97;6.30;;;12.70;99.90;;;;;;5051556;28;20466;-64
2021/09/03 00:26:50;;;;;;;10.70;6.93;;;12.70;99.90;;;;;;5051859;28;20202;-64
2021/09/03 00:29:17;;;;;;;9.13;6.30;;;12.70;99.90;;;;;;5051588;28;20704;-64
2021/09/03 00:31:43;;;;;;;6.93;6.23;;;12.70;99.90;;;;;;5051948;28;20599;-64
2021/09/03 00:34:10;;;;;;;8.90;6.17;;;12.70;99.90;;;;;;5051803;28;20263;-64
2021/09/03 00:36:37;;;;;;;7.97;6.80;;;12.70;99.90;;;;;;5051807;28;20205;-64
2021/09/03 00:39:05;;;;;;;7.60;6.57;;;12.70;99.90;;;;;;5051918;28;20835;-64
2021/09/03 00:41:31;;;;;;;8.70;6.70;;;12.70;99.90;;;;;;5051931;28;20627;-64
2021/09/03 00:43:58;;;;;;;7.17;6.27;;;12.70;99.90;;;;;;5051425;28;20213;-65
2021/09/03 00:46:25;;;;;;;8.17;7.00;;;12.70;99.90;;;;;;5051356;28;20736;-63
2021/09/03 00:48:52;;;;;;;8.33;6.73;;;12.70;99.90;;;;;;5051499;28;20209;-64
2021/09/03 00:51:18;;;;;;;7.63;6.63;;;12.70;99.90;;;;;;5051562;28;20212;-64
2021/09/03 00:53:45;;;;;;;9.17;6.70;;;12.70;99.90;;;;;;5051232;28;20205;-63
2021/09/03 00:56:14;;;;;;;8.60;6.43;;;12.70;99.90;;;;;;5051105;28;20717;-64
2021/09/03 00:58:40;;;;;;;8.53;6.20;;;12.60;99.90;;;;;;5051178;28;20735;-65
2021/09/03 01:01:07;;;;;;;11.93;6.60;;;12.50;99.90;;;;;;5051159;28;20612;-65
2021/09/03 01:03:34;;;;;;;7.43;5.97;;;12.50;99.90;;;;;;5051175;28;20213;-64
2021/09/03 01:06:03;;;;;;;7.20;5.87;;;12.40;99.90;;;;;;5051041;28;20258;-65
2021/09/03 01:08:30;;;;;;;7.07;5.70;;;12.30;99.90;;;;;;5051027;28;20205;-64
2021/09/03 01:10:57;;;;;;;8.37;6.40;;;12.30;99.90;;;;;;5051048;28;20690;-64
2021/09/03 01:13:25;;;;;;;6.53;5.83;;;12.30;99.90;;;;;;5050813;28;20236;-64
2021/09/03 01:15:51;;;;;;;10.10;5.93;;;12.20;99.90;;;;;;5051059;28;20580;-65
2021/09/03 01:18:18;;;;;;;7.53;6.13;;;12.20;99.90;;;;;;5050909;28;20229;-63
2021/09/03 01:20:45;;;;;;;8.67;6.27;;;12.20;99.90;;;;;;5050857;28;20210;-64
2021/09/03 01:23:14;;;;;;;6.57;5.83;;;12.10;99.90;;;;;;5050928;28;20205;-64
2021/09/03 01:25:41;;;;;;;9.37;6.10;;;12.10;99.90;;;;;;5050595;28;20324;-64
2021/09/03 01:28:08;;;;;;;6.53;5.73;;;12.10;99.90;;;;;;5050855;28;20210;-64
2021/09/03 01:30:35;;;;;;;9.27;6.37;;;12.10;99.90;;;;;;5050678;28;20697;-64
2021/09/03 01:33:02;;;;;;;7.67;5.80;;;12.10;99.90;;;;;;5051034;28;20225;-64
2021/09/03 01:35:29;;;;;;;8.30;6.53;;;12.00;99.90;;;;;;5050571;28;20828;-64
2021/09/03 01:37:55;;;;;;;8.50;6.40;;;12.00;99.90;;;;;;5050037;28;20205;-65
2021/09/03 01:40:23;;;;;;;9.27;6.50;;;12.00;99.90;;;;;;5050967;28;20209;-64
2021/09/03 01:42:50;;;;;;;6.77;5.90;;;12.00;99.90;;;;;;5050709;28;20228;-64
2021/09/03 01:45:17;;;;;;;7.57;5.93;;;12.00;99.90;;;;;;5050509;28;20233;-65
2021/09/03 01:47:44;;;;;;;6.93;6.00;;;12.00;99.90;;;;;;5050783;28;20208;-64
2021/09/03 01:50:11;;;;;;;7.77;6.37;;;12.00;99.90;;;;;;5050878;28;20255;-64
2021/09/03 01:52:37;;;;;;;7.93;6.10;;;12.00;99.90;;;;;;5050475;28;20221;-64
2021/09/03 01:55:05;;;;;;;7.33;6.53;;;11.90;99.90;;;;;;5050781;28;20236;-64
2021/09/03 01:57:33;;;;;;;7.53;6.17;;;11.90;99.90;;;;;;5050821;28;20201;-64
2021/09/03 02:00:00;;;;;;;9.67;6.60;;;11.90;99.90;;;;;;5050808;28;20209;-64
2021/09/03 02:02:29;;;;;;;7.03;6.33;;;11.90;99.90;;;;;;5050875;28;20205;-65
2021/09/03 02:04:55;;;;;;;7.57;6.30;;;11.90;99.90;;;;;;5050955;28;20320;-64
2021/09/03 02:07:22;;;;;;;6.50;5.80;;;11.90;99.90;;;;;;5050528;28;20205;-65
2021/09/03 02:09:49;;;;;;;8.97;6.57;;;11.90;99.90;;;;;;5050775;28;20210;-64
2021/09/03 02:12:16;;;;;;;7.97;6.10;;;11.80;99.90;;;;;;5050599;28;20222;-65
2021/09/03 02:14:44;;;;;;;9.63;6.37;;;11.80;99.90;;;;;;5050286;28;20737;-65
2021/09/03 02:17:11;;;;;;;10.30;6.17;;;11.80;99.90;;;;;;5050572;28;20216;-65
2021/09/03 02:19:38;;;;;;;8.33;6.83;;;11.80;99.90;;;;;;5050727;28;20202;-65
2021/09/03 02:22:05;;;;;;;8.80;6.57;;;11.90;99.90;;;;;;5050364;28;20206;-64
2021/09/03 02:24:32;;;;;;;10.63;6.53;;;11.90;99.90;;;;;;5050188;28;20241;-65
2021/09/03 02:26:59;;;;;;;8.17;5.70;;;11.90;99.90;;;;;;5050431;28;20217;-65
2021/09/03 02:29:25;;;;;;;8.60;6.60;;;11.90;99.90;;;;;;5050302;28;20217;-65
2021/09/03 02:31:54;;;;;;;7.97;6.07;;;11.80;99.90;;;;;;5050278;28;20210;-65
2021/09/03 02:34:21;;;;;;;8.93;6.40;;;11.80;99.90;;;;;;5049924;28;20229;-64
2021/09/03 02:36:48;;;;;;;7.83;6.17;;;11.80;99.90;;;;;;5050351;28;20283;-65
2021/09/03 02:39:14;;;;;;;7.67;6.07;;;11.70;99.90;;;;;;5050371;28;20205;-64
2021/09/03 02:41:41;;;;;;;7.80;6.90;;;11.80;99.90;;;;;;5050191;28;20220;-64
2021/09/03 02:44:08;;;;;;;8.60;5.93;;;11.70;99.90;;;;;;5049992;28;20625;-64
2021/09/03 02:46:34;;;;;;;7.57;6.33;;;11.70;99.90;;;;;;5050157;28;20206;-64
2021/09/03 02:49:02;;;;;;;8.67;6.30;;;11.70;99.90;;;;;;5050011;28;20205;-65
2021/09/03 02:51:29;;;;;;;8.63;5.73;;;11.70;99.90;;;;;;5053824;28;20205;-65
2021/09/03 02:53:56;;;;;;;7.23;6.40;;;11.60;99.90;;;;;;5053616;28;20225;-65
2021/09/03 02:56:22;;;;;;;7.33;6.03;;;11.60;99.90;;;;;;5053620;28;20291;-64
2021/09/03 02:58:49;;;;;;;7.50;6.37;;;11.50;99.90;;;;;;5053366;28;20213;-65
2021/09/03 03:01:16;;;;;;;8.80;6.40;;;11.50;99.90;;;;;;5053367;28;20213;-65
2021/09/03 03:03:42;;;;;;;7.57;6.00;;;11.50;99.90;;;;;;5053270;28;20371;-65
2021/09/03 03:06:10;;;;;;;9.13;6.27;;;11.40;99.90;;;;;;5053463;28;20233;-65
2021/09/03 03:08:37;;;;;;;8.80;5.90;;;11.50;99.90;;;;;;5053305;28;20201;-65
2021/09/03 03:11:04;;;;;;;8.20;6.40;;;11.50;99.90;;;;;;5053657;28;20209;-64
2021/09/03 03:13:30;;;;;;;9.83;6.70;;;11.50;99.90;;;;;;5053029;28;20635;-65
2021/09/03 03:15:58;;;;;;;7.50;6.00;;;11.50;99.90;;;;;;5053124;28;20257;-65
2021/09/03 03:18:25;;;;;;;8.83;6.37;;;11.40;99.90;;;;;;5053194;28;20296;-65
2021/09/03 03:20:52;;;;;;;7.37;6.33;;;11.40;99.90;;;;;;5053129;28;20606;-64
2021/09/03 03:23:20;;;;;;;9.87;6.47;;;11.40;99.90;;;;;;5053112;28;20213;-65
2021/09/03 03:25:48;;;;;;;7.47;6.23;;;11.40;99.90;;;;;;5053407;28;20248;-65
2021/09/03 03:28:15;;;;;;;7.17;6.03;;;11.30;99.90;;;;;;5052871;28;20692;-64
2021/09/03 03:30:41;;;;;;;7.80;5.90;;;11.30;99.90;;;;;;5053226;28;20212;-64
2021/09/03 03:33:08;;;;;;;7.07;6.37;;;11.30;99.90;;;;;;5053321;28;20221;-65
2021/09/03 03:35:35;;;;;;;6.47;5.83;;;11.30;99.90;;;;;;5053112;28;20256;-65
2021/09/03 03:38:02;;;;;;;9.80;6.60;;;11.20;99.90;;;;;;5053697;28;20946;-65
2021/09/03 03:40:30;;;;;;;8.23;6.20;;;11.20;99.90;;;;;;5053039;28;20739;-64
2021/09/03 03:42:56;;;;;;;7.00;6.30;;;11.20;99.90;;;;;;5052568;28;20252;-65
2021/09/03 03:45:23;;;;;;;8.03;6.33;;;11.10;99.90;;;;;;5052710;28;20226;-65
2021/09/03 03:47:50;;;;;;;8.87;6.37;;;11.10;99.90;;;;;;5052538;28;20669;-65
2021/09/03 03:50:17;;;;;;;6.80;5.93;;;11.10;99.90;;;;;;5052799;28;20213;-65
2021/09/03 03:52:43;;;;;;;8.10;6.07;;;11.00;99.90;;;;;;5052691;28;20222;-65
2021/09/03 03:55:11;;;;;;;7.00;6.17;;;11.00;99.90;;;;;;5052402;28;20232;-65
2021/09/03 03:57:39;;;;;;;8.10;6.47;;;11.00;99.90;;;;;;5052343;28;20210;-65
2021/09/03 04:00:07;;;;;;;6.97;6.13;;;11.00;99.90;;;;;;5051917;28;20213;-65
2021/09/03 04:02:34;;;;;;;8.33;6.00;;;11.00;99.90;;;;;;5052131;28;20707;-65
2021/09/03 04:05:00;;;;;;;11.87;6.20;;;11.00;99.90;;;;;;5052140;28;20221;-64
2021/09/03 04:07:27;;;;;;;8.03;6.83;;;11.00;99.90;;;;;;5052376;28;20593;-64
2021/09/03 04:09:54;;;;;;;8.97;6.30;;;11.00;99.90;;;;;;5052025;28;20568;-65
2021/09/03 04:12:20;;;;;;;8.00;6.53;;;11.00;99.90;;;;;;5052049;28;20240;-65
2021/09/03 04:14:48;;;;;;;11.37;6.90;;;11.10;99.90;;;;;;5051892;28;20438;-65
2021/09/03 04:17:15;;;;;;;10.50;7.03;;;11.10;99.90;;;;;;5052255;28;20217;-65
2021/09/03 04:19:42;;;;;;;8.37;6.47;;;11.10;99.90;;;;;;5052002;28;20217;-64
2021/09/03 04:22:08;;;;;;;12.40;7.00;;;11.20;99.90;;;;;;5052126;28;20735;-65
2021/09/03 04:24:35;;;;;;;10.83;7.40;;;11.20;99.90;;;;;;5051487;28;20287;-65
2021/09/03 04:27:02;;;;;;;11.63;6.67;;;11.20;99.90;;;;;;5052122;28;20263;-65
2021/09/03 04:29:29;;;;;;;10.50;7.13;;;11.20;99.90;;;;;;5051811;28;20558;-64
2021/09/03 04:31:57;;;;;;;9.67;6.87;;;11.20;99.90;;;;;;5051906;28;20210;-66
2021/09/03 04:34:24;;;;;;;8.60;6.60;;;11.20;99.90;;;;;;5051517;28;20226;-65
2021/09/03 04:36:51;;;;;;;8.67;6.73;;;11.20;99.90;;;;;;5051742;28;20213;-65
2021/09/03 04:39:17;;;;;;;8.73;6.60;;;11.20;99.90;;;;;;5051401;28;20228;-65
2021/09/03 04:41:44;;;;;;;10.03;6.20;;;11.10;99.90;;;;;;5051807;28;20209;-65
2021/09/03 04:44:11;;;;;;;10.57;6.03;;;11.10;99.90;;;;;;5051312;28;20205;-65
2021/09/03 04:46:37;;;;;;;10.00;6.83;;;11.10;99.90;;;;;;5051584;28;20214;-64
2021/09/03 04:49:05;;;;;;;7.53;6.70;;;11.10;99.90;;;;;;5051379;28;20208;-65
2021/09/03 04:51:32;;;;;;;10.77;5.90;;;11.10;99.90;;;;;;5051528;28;20627;-65
2021/09/03 04:53:58;;;;;;;17.53;11.90;;;11.10;99.90;;;;;;5051138;28;20229;-65
2021/09/03 04:56:25;;;;;;;33.23;21.70;;;11.10;99.90;;;;;;5051532;28;20619;-65
2021/09/03 04:58:52;;;;;;;28.90;19.70;;;11.00;99.90;;;;;;5051602;28;20209;-66
2021/09/03 05:01:18;;;;;;;23.87;16.07;;;11.00;99.90;;;;;;5051679;28;20205;-65
2021/09/03 05:03:47;;;;;;;19.63;12.93;;;11.00;99.90;;;;;;5051460;28;20206;-65
2021/09/03 05:06:16;;;;;;;14.80;10.00;;;11.00;99.90;;;;;;5050906;28;20703;-64
2021/09/03 05:08:42;;;;;;;19.60;9.73;;;11.10;99.90;;;;;;5051237;28;20205;-64
2021/09/03 05:11:09;;;;;;;11.43;8.70;;;11.10;99.90;;;;;;5051449;28;20206;-65
2021/09/03 05:13:36;;;;;;;16.80;7.80;;;11.20;99.90;;;;;;5050140;28;20278;-64
2021/09/03 05:16:03;;;;;;;11.37;6.90;;;11.30;99.90;;;;;;5051254;28;20228;-65
2021/09/03 05:18:29;;;;;;;10.47;6.23;;;11.30;99.90;;;;;;5051059;28;20201;-65
2021/09/03 05:20:56;;;;;;;10.47;6.83;;;11.40;99.90;;;;;;5051324;28;20205;-66
2021/09/03 05:23:24;;;;;;;9.73;6.60;;;11.40;99.90;;;;;;5051022;28;20244;-64
2021/09/03 05:25:51;;;;;;;11.13;7.03;;;11.40;99.90;;;;;;5050840;28;20328;-66
2021/09/03 05:28:17;;;;;;;13.63;7.23;;;11.50;99.90;;;;;;5050880;28;20202;-64
2021/09/03 05:30:44;;;;;;;10.80;7.13;;;11.50;99.90;;;;;;5050761;28;20213;-64
2021/09/03 05:33:11;;;;;;;8.10;6.23;;;11.60;99.90;;;;;;5050821;28;20225;-62
2021/09/03 05:35:37;;;;;;;12.20;9.30;;;11.70;99.90;;;;;;5050361;28;20233;-64
2021/09/03 05:38:05;;;;;;;11.20;7.93;;;11.80;99.90;;;;;;5050561;28;20681;-64
2021/09/03 05:40:33;;;;;;;17.97;11.67;;;11.90;99.90;;;;;;5050834;28;20205;-64
2021/09/03 05:42:59;;;;;;;25.70;13.57;;;12.70;99.90;;;;;;5050931;28;20209;-64
2021/09/03 05:45:26;;;;;;;24.87;15.53;;;14.10;99.90;;;;;;5050363;28;20264;-64
2021/09/03 05:47:53;;;;;;;9.80;5.67;;;15.60;99.90;;;;;;5050590;28;20206;-64
2021/09/03 05:50:20;;;;;;;14.00;9.03;;;17.10;99.90;;;;;;5050723;28;20205;-65
2021/09/03 05:52:47;;;;;;;9.40;6.07;;;18.40;99.90;;;;;;5050452;28;20216;-67
2021/09/03 05:55:14;;;;;;;5.45;4.82;;;19.60;99.90;;;;;;5050244;28;20717;-64
2021/09/03 05:57:42;;;;;;;5.63;4.78;;;20.60;99.90;;;;;;5050987;28;20296;-65
2021/09/03 06:00:10;;;;;;;8.38;4.47;;;21.50;99.90;;;;;;5050496;28;20217;-65
2021/09/03 06:02:37;;;;;;;5.40;4.43;;;22.20;99.90;;;;;;5050487;28;20213;-64
2021/09/03 06:05:04;;;;;;;5.93;4.80;;;22.80;99.90;;;;;;5050667;28;20232;-65
2021/09/03 06:07:31;;;;;;;5.45;4.50;;;23.20;99.90;;;;;;5050598;28;20205;-65
2021/09/03 06:09:58;;;;;;;7.47;5.32;;;23.70;99.90;;;;;;5050439;28;20735;-65
2021/09/03 06:12:24;;;;;;;8.20;5.35;;;24.40;99.90;;;;;;5050721;28;20635;-66
2021/09/03 06:14:52;;;;;;;6.75;4.50;;;25.10;99.90;;;;;;5050327;28;20230;-65
2021/09/03 06:17:19;;;;;;;7.07;4.88;;;25.80;99.90;;;;;;5050514;28;20213;-64
2021/09/03 06:19:46;;;;;;;6.53;4.38;;;26.70;99.50;;;;;;5050586;28;20214;-66
2021/09/03 06:22:13;;;;;;;5.03;4.53;;;27.50;97.50;;;;;;5050798;28;20267;-66
2021/09/03 06:24:40;;;;;;;5.55;4.57;;;28.10;94.40;;;;;;5053246;28;20229;-66
2021/09/03 06:27:08;;;;;;;4.75;4.20;;;28.60;92.60;;;;;;5054293;28;20713;-66
2021/09/03 06:29:39;;;;;;;7.63;4.50;;;29.20;91.10;;;;;;5054035;28;20212;-67
2021/09/03 06:32:08;;;;;;;5.78;4.40;;;29.70;89.40;;;;;;5054152;28;20205;-68
2021/09/03 06:34:36;;;;;;;6.07;4.72;;;30.30;84.40;;;;;;5054129;28;20229;-65
2021/09/03 06:37:03;;;;;;;6.45;4.78;;;30.80;81.30;;;;;;5054190;28;20209;-66
2021/09/03 06:39:30;;;;;;;8.45;4.20;;;31.10;78.70;;;;;;5053840;28;20201;-65
2021/09/03 06:41:56;;;;;;;5.30;4.38;;;31.40;77.20;;;;;;5054058;28;20205;-64
2021/09/03 06:44:23;;;;;;;5.20;4.63;;;31.70;74.50;;;;;;5053804;28;20556;-67
2021/09/03 06:46:50;;;;;;;7.15;4.60;;;31.90;73.70;;;;;;5054016;28;20228;-67
2021/09/03 06:49:18;;;;;;;8.35;4.80;;;32.00;71.90;;;;;;5053707;28;20262;-66
2021/09/03 06:51:44;;;;;;;6.60;4.05;;;31.90;70.40;;;;;;5053648;28;20217;-64
2021/09/03 06:54:11;;;;;;;5.50;4.32;;;32.10;71.10;;;;;;5053151;28;20293;-65
2021/09/03 06:56:38;;;;;;;6.07;4.22;;;32.50;69.10;;;;;;5053226;28;20665;-63
2021/09/03 06:59:04;;;;;;;4.90;4.13;;;32.80;67.20;;;;;;5053147;28;20210;-63
2021/09/03 07:01:31;;;;;;;4.75;4.32;;;33.20;65.60;;;;;;5053417;28;20256;-64
2021/09/03 07:03:58;;;;;;;5.07;3.97;;;33.30;64.70;;;;;;5053083;28;20213;-64
2021/09/03 07:06:26;;;;;;;6.13;4.30;;;33.50;64.20;;;;;;5052991;28;20740;-64
2021/09/03 07:08:53;;;;;;;4.97;4.07;;;33.80;62.60;;;;;;5052994;28;20263;-64
2021/09/03 07:11:20;;;;;;;4.43;4.03;;;34.00;61.10;;;;;;5053162;28;20222;-65
2021/09/03 07:13:46;;;;;;;5.78;3.97;;;34.60;60.30;;;;;;5053040;28;20225;-63
2021/09/03 07:16:13;;;;;;;4.72;4.20;;;35.10;58.40;;;;;;5053180;28;20221;-63
2021/09/03 07:18:40;;;;;;;7.13;4.00;;;35.70;57.00;;;;;;5052922;28;20225;-61
2021/09/03 07:21:07;;;;;;;5.80;4.25;;;36.00;55.90;;;;;;5053285;28;20218;-66
2021/09/03 07:23:36;;;;;;;4.15;3.63;;;36.00;55.40;;;;;;5052871;28;20235;-66
2021/09/03 07:26:03;;;;;;;4.75;4.25;;;35.90;55.70;;;;;;5053105;28;20237;-66
2021/09/03 07:28:29;;;;;;;6.38;4.10;;;35.90;55.30;;;;;;5052633;28;20678;-67
2021/09/03 07:30:56;;;;;;;4.72;4.03;;;35.90;55.30;;;;;;5052952;28;20479;-67
2021/09/03 07:33:23;;;;;;;4.72;4.10;;;36.00;55.50;;;;;;5052797;28;20209;-64
2021/09/03 07:35:50;;;;;;;6.50;4.32;;;35.70;54.40;;;;;;5051836;28;20233;-66
2021/09/03 07:38:16;;;;;;;4.93;4.20;;;35.50;54.70;;;;;;5052513;28;20205;-66
2021/09/03 07:40:45;;;;;;;5.47;4.30;;;35.50;54.10;;;;;;5052535;28;20731;-66
2021/09/03 07:43:13;;;;;;;5.07;4.57;;;35.00;54.70;;;;;;5052581;28;20205;-65
2021/09/03 07:45:41;;;;;;;5.90;4.43;;;34.40;55.80;;;;;;5052823;28;20300;-66
2021/09/03 07:48:08;;;;;;;5.88;4.68;;;33.80;56.50;;;;;;5052586;28;20313;-65
2021/09/03 07:50:35;;;;;;;5.07;4.30;;;33.40;57.20;;;;;;5052464;28;20225;-65
2021/09/03 07:53:03;;;;;;;5.63;4.75;;;33.10;57.10;;;;;;5052214;28;20216;-65
2021/09/03 07:55:30;;;;;;;5.88;4.90;;;32.70;57.70;;;;;;5052178;28;20230;-66
2021/09/03 07:57:58;;;;;;;8.15;4.82;;;32.20;58.30;;;;;;5048673;28;20446;-62
2021/09/03 08:00:25;;;;;;;5.32;4.75;;;31.50;59.40;;;;;;5050586;28;20209;-66
2021/09/03 08:02:52;;;;;;;5.32;4.82;;;31.40;59.30;;;;;;5051746;28;20689;-68
2021/09/03 08:05:18;;;;;;;4.95;4.45;;;31.10;59.70;;;;;;5051823;28;20217;-68
2021/09/03 08:07:45;;;;;;;5.05;4.55;;;30.90;61.10;;;;;;5051564;28;20206;-69
2021/09/03 08:10:14;;;;;;;5.65;4.80;;;30.40;62.40;;;;;;5068539;28;20308;-68
2021/09/03 08:12:41;;;;;;;6.15;5.25;;;29.30;64.40;;;;;;5072249;28;20204;-67
2021/09/03 08:15:10;;;;;;;8.48;4.75;;;28.00;66.40;;;;;;5071544;28;20240;-70
2021/09/03 08:17:37;;;;;;;6.57;5.10;;;26.70;70.90;;;;;;5071604;28;20259;-67
2021/09/03 08:20:05;;;;;;;5.93;4.43;;;25.40;74.50;;;;;;5071405;28;20205;-72
2021/09/03 08:22:32;;;;;;;4.97;4.47;;;24.50;76.60;;;;;;5071508;28;20673;-73
2021/09/03 08:24:59;;;;;;;5.65;4.97;;;23.70;80.10;;;;;;5071406;28;20224;-71
2021/09/03 08:27:26;;;;;;;6.70;5.40;;;22.70;84.70;;;;;;5071305;28;20684;-72
2021/09/03 08:29:53;;;;;;;5.95;4.70;;;22.10;88.00;;;;;;5071318;28;20228;-71
2021/09/03 08:32:21;;;;;;;10.02;7.15;;;21.80;90.00;;;;;;5071335;28;20204;-70
2021/09/03 08:34:48;;;;;;;5.90;5.18;;;21.70;90.80;;;;;;5070833;28;20233;-67
2021/09/03 08:37:14;;;;;;;16.80;9.55;;;21.60;92.00;;;;;;5071050;28;20672;-72
2021/09/03 08:39:41;;;;;;;5.93;4.95;;;21.40;93.10;;;;;;5071450;28;20408;-68
2021/09/03 08:42:09;;;;;;;9.73;5.35;;;21.20;94.80;;;;;;5071249;28;20212;-68
2021/09/03 08:44:36;;;;;;;11.55;5.65;;;21.10;95.50;;;;;;5070962;28;20225;-68
2021/09/03 08:47:03;;;;;;;11.82;5.05;;;21.10;96.50;;;;;;5071441;28;20209;-68
2021/09/03 08:49:31;;;;;;;14.35;5.90;;;20.90;97.50;;;;;;5071023;28;20208;-69
2021/09/03 08:51:58;;;;;;;6.22;4.82;;;20.90;98.50;;;;;;5071585;28;20236;-69
2021/09/03 08:54:25;;;;;;;5.75;4.60;;;20.80;99.40;;;;;;5071427;28;20254;-69
2021/09/03 08:56:51;;;;;;;5.88;4.82;;;20.90;99.90;;;;;;5071416;28;20205;-69
2021/09/03 08:59:18;;;;;;;7.43;5.53;;;21.00;99.90;;;;;;5071610;28;20212;-68
2021/09/03 09:02:13;;;;;;;6.88;5.05;;;21.10;99.90;;;;;;5071094;28;20212;-69
2021/09/03 09:04:41;;;;;;;7.25;5.28;;;21.20;99.90;;;;;;5071015;28;20217;-69
2021/09/03 09:07:08;;;;;;;5.85;4.85;;;21.40;99.90;;;;;;5071052;28;20303;-68
2021/09/03 09:09:38;;;;;;;10.63;4.90;;;21.40;99.90;;;;;;5070932;28;20204;-69
2021/09/03 09:12:10;;;;;;;8.57;5.30;;;21.50;99.90;;;;;;5070936;28;20677;-70
2021/09/03 09:15:07;;;;;;;6.10;5.10;;;21.50;99.90;;;;;;5070964;28;20319;-69
2021/09/03 09:17:38;;;;;;;7.07;5.13;;;21.40;99.90;;;;;;5070932;28;20208;-69
2021/09/03 09:20:06;;;;;;;5.93;5.15;;;21.40;99.90;;;;;;5070853;28;20610;-68
2021/09/03 09:22:52;;;;;;;6.05;4.65;;;21.40;99.90;;;;;;5070902;28;20205;-68
2021/09/03 09:25:21;;;;;;;5.45;4.88;;;21.50;99.90;;;;;;5071573;28;20256;-68
2021/09/03 09:27:49;;;;;;;5.05;4.47;;;21.60;99.90;;;;;;5070830;28;20217;-65
2021/09/03 09:30:27;;;;;;;6.28;4.72;;;21.70;99.90;;;;;;5071318;28;20205;-65
2021/09/03 09:33:16;;;;;;;8.02;5.07;;;21.90;99.90;;;;;;5070635;28;20583;-65
2021/09/03 09:35:45;;;;;;;7.50;4.38;;;22.00;99.90;;;;;;5070708;28;20232;-65
2021/09/03 09:38:13;;;;;;;5.65;4.60;;;22.10;99.90;;;;;;5070577;28;20205;-65
2021/09/03 09:40:48;;;;;;;5.93;4.55;;;22.00;99.90;;;;;;5070604;28;20208;-65
2021/09/03 09:43:29;;;;;;;6.65;4.60;;;22.00;99.90;;;;;;5070744;28;20208;-65
2021/09/03 09:46:26;;;;;;;7.60;4.55;;;22.10;99.90;;;;;;5070918;28;20228;-65
2021/09/03 09:49:00;;;;;;;8.45;4.88;;;22.20;99.90;;;;;;5070602;28;20216;-65
2021/09/03 09:51:29;;;;;;;7.63;4.97;;;22.20;99.90;;;;;;5067869;28;20236;-62
2021/09/03 09:53:57;;;;;;;5.47;4.90;;;22.30;99.90;;;;;;5069994;28;20238;-64
2021/09/03 09:56:26;;;;;;;5.70;4.53;;;22.40;99.90;;;;;;5070490;28;20236;-64
2021/09/03 09:58:55;;;;;;;5.28;4.75;;;22.40;99.90;;;;;;5071524;28;20622;-65
2021/09/03 10:01:22;;;;;;;6.30;4.75;;;22.60;99.90;;;;;;5074435;28;20205;-67
2021/09/03 10:03:50;;;;;;;6.32;4.68;;;22.70;99.90;;;;;;5074157;28;20205;-67
2021/09/03 10:06:19;;;;;;;8.50;4.95;;;22.80;99.90;;;;;;5074023;28;20225;-67
2021/09/03 10:08:48;;;;;;;6.82;4.78;;;22.90;99.90;;;;;;5074082;28;20208;-66
2021/09/03 10:11:15;;;;;;;5.85;4.25;;;23.00;99.90;;;;;;5074346;28;20201;-66
2021/09/03 10:13:42;;;;;;;8.48;4.57;;;23.10;99.90;;;;;;5073592;28;20212;-65
2021/09/03 10:16:10;;;;;;;6.18;4.20;;;23.20;99.90;;;;;;5074007;28;20282;-67
2021/09/03 10:18:38;;;;;;;7.25;4.90;;;23.30;99.90;;;;;;5073924;28;20681;-66
2021/09/03 10:21:05;;;;;;;5.07;4.25;;;23.40;99.90;;;;;;5073755;28;20301;-66
2021/09/03 10:23:50;;;;;;;9.15;6.93;;;23.50;99.90;;;;;;5073671;28;20241;-65
2021/09/03 10:26:20;;;;;;;5.32;4.57;;;23.70;99.90;;;;;;5073827;28;20319;-66
2021/09/03 10:28:47;;;;;;;5.30;4.25;;;23.80;99.90;;;;;;5073829;28;20209;-65
2021/09/03 10:31:18;;;;;;;8.43;5.18;;;23.90;99.90;;;;;;5073621;28;20652;-67
2021/09/03 10:33:47;;;;;;;6.80;4.75;;;23.90;99.70;;;;;;5073523;28;20655;-66
2021/09/03 10:36:14;;;;;;;5.72;4.45;;;24.00;99.70;;;;;;5073446;28;20401;-65
2021/09/03 10:38:44;;;;;;;7.05;5.10;;;23.80;99.80;;;;;;5073049;28;20204;-63
2021/09/03 10:41:47;;;;;;;6.60;4.65;;;23.80;99.90;;;;;;5073337;28;20201;-64
2021/09/03 10:44:13;;;;;;;16.70;10.85;;;23.90;99.90;;;;;;5073152;28;20208;-68
2021/09/03 10:46:43;;;;;;;4.43;3.83;;;24.10;99.80;;;;;;5073479;28;20277;-69
2021/09/03 10:49:10;;;;;;;5.75;3.97;;;24.30;99.10;;;;;;5074136;28;20205;-69
2021/09/03 10:51:38;;;;;;;6.07;4.72;;;24.40;98.40;;;;;;5073961;28;20681;-69
2021/09/03 10:54:15;;;;;;;5.07;4.40;;;24.50;98.40;;;;;;5073489;28;20201;-67
2021/09/03 10:56:54;;;;;;;6.03;4.57;;;24.50;98.50;;;;;;5073381;28;20311;-72
2021/09/03 10:59:20;;;;;;;7.03;5.43;;;24.50;98.60;;;;;;5073078;28;20212;-66
2021/09/03 11:01:56;;;;;;;6.43;3.88;;;24.50;97.80;;;;;;5073048;28;20212;-67
2021/09/03 11:04:26;;;;;;;5.13;4.32;;;24.50;97.00;;;;;;5073031;28;20239;-67
2021/09/03 11:07:12;;;;;;;7.00;4.07;;;24.50;97.70;;;;;;5072684;28;20204;-63
2021/09/03 11:09:46;;;;;;;7.25;4.07;;;24.60;97.80;;;;;;5071576;28;20212;-64
2021/09/03 11:12:17;;;;;;;6.28;4.25;;;24.80;97.50;;;;;;5072669;28;20312;-65
2021/09/03 11:14:44;;;;;;;4.63;3.83;;;24.80;97.10;;;;;;5072574;28;20732;-65
2021/09/03 11:17:12;;;;;;;6.40;4.25;;;24.80;96.10;;;;;;5072817;28;20212;-64
2021/09/03 11:19:41;;;;;;;6.45;4.32;;;24.80;96.40;;;;;;5071829;28;20742;-65
2021/09/03 11:22:09;;;;;;;5.13;4.05;;;24.80;96.30;;;;;;5036519;28;20242;-65
2021/09/03 11:24:38;;;;;;;4.70;3.72;;;24.80;96.30;;;;;;5032374;28;20248;-63
2021/09/03 11:27:06;;;;;;;6.13;4.32;;;25.00;96.10;;;;;;5032471;28;20206;-65
2021/09/03 11:29:36;;;;;;;5.35;3.80;;;25.10;95.40;;;;;;5032455;28;20313;-65
2021/09/03 11:32:11;;;;;;;4.50;3.78;;;25.20;93.80;;;;;;5032179;28;20213;-64
2021/09/03 11:34:56;;;;;;;4.38;3.55;;;25.20;93.50;;;;;;5031961;28;20729;-65
2021/09/03 11:37:28;;;;;;;4.78;3.80;;;25.20;93.40;;;;;;5032637;28;20206;-65
2021/09/03 11:39:57;;;;;;;5.25;3.80;;;25.30;93.90;;;;;;5032223;28;20202;-65
2021/09/03 11:42:26;;;;;;;4.95;3.75;;;25.40;92.60;;;;;;5032190;28;20206;-68
2021/09/03 11:44:57;;;;;;;6.82;4.95;;;25.50;92.10;;;;;;5032174;28;20265;-65
2021/09/03 11:47:31;;;;;;;6.55;5.65;;;25.50;91.90;;;;;;5032259;28;20206;-66
2021/09/03 11:49:58;;;;;;;4.75;4.20;;;25.60;91.40;;;;;;5032045;28;20765;-65
2021/09/03 11:52:28;;;;;;;4.75;3.90;;;25.80;91.50;;;;;;5032120;28;20201;-65
2021/09/03 11:54:55;;;;;;;6.65;4.00;;;25.90;90.60;;;;;;5031667;28;20230;-65
2021/09/03 11:57:22;;;;;;;5.72;3.63;;;25.80;91.00;;;;;;5032547;28;20217;-66
2021/09/03 11:59:58;;;;;;;3.97;3.50;;;25.80;89.80;;;;;;5032026;28;20217;-66
2021/09/03 12:02:27;;;;;;;5.03;3.70;;;25.70;90.30;;;;;;5031967;28;20555;-65
2021/09/03 12:04:55;;;;;;;7.30;4.15;;;25.60;90.30;;;;;;5032014;28;20234;-65
2021/09/03 12:07:24;;;;;;;5.63;3.97;;;25.60;90.90;;;;;;5032579;28;20567;-64
2021/09/03 12:09:55;;;;;;;6.55;3.90;;;25.60;90.90;;;;;;5032523;28;20213;-64
2021/09/03 12:12:27;;;;;;;4.75;3.72;;;25.70;90.80;;;;;;5032315;28;20268;-64
2021/09/03 12:14:59;;;;;;;5.75;3.50;;;25.80;90.20;;;;;;5048792;28;20237;-62
2021/09/03 12:17:40;;;;;;;5.10;3.75;;;25.80;90.80;;;;;;5051946;28;20217;-66
2021/09/03 12:20:16;;;;;;;5.00;3.92;;;25.90;89.30;;;;;;5052091;28;20244;-67
2021/09/03 12:22:48;;;;;;;5.45;3.63;;;25.90;88.60;;;;;;5051066;28;20696;-68
2021/09/03 12:25:15;;;;;;;4.28;3.70;;;26.00;90.20;;;;;;5051631;28;20229;-64
2021/09/03 12:27:41;;;;;;;4.93;3.55;;;26.00;89.80;;;;;;5052777;28;20214;-66
2021/09/03 12:30:14;;;;;;;4.82;3.75;;;26.20;89.50;;;;;;5052188;28;20209;-65
2021/09/03 12:32:41;;;;;;;4.72;3.80;;;26.30;88.80;;;;;;5052115;28;20214;-65
2021/09/03 12:35:11;;;;;;;5.10;3.90;;;26.40;87.00;;;;;;5051929;28;20229;-63
2021/09/03 12:37:38;;;;;;;6.50;3.63;;;26.50;85.30;;;;;;5052987;28;20654;-66
2021/09/03 12:40:07;;;;;;;4.40;3.65;;;26.70;82.70;;;;;;5052373;28;20679;-65
2021/09/03 12:42:39;;;;;;;7.78;3.90;;;26.80;83.00;;;;;;5051572;28;20236;-63
2021/09/03 12:45:07;;;;;;;4.07;3.20;;;27.00;81.90;;;;;;5051705;28;20225;-64
2021/09/03 12:47:35;;;;;;;6.32;4.05;;;27.00;81.50;;;;;;5051739;28;20209;-66
2021/09/03 12:50:11;;;;;;;4.43;3.40;;;27.20;81.20;;;;;;5051603;28;20210;-66
2021/09/03 12:52:38;;;;;;;4.57;3.60;;;27.20;80.50;;;;;;5051523;28;20300;-66